sensor_id;sensor_type;location;lat;lon;timestamp;pressure;altitude;pressure_sealevel;temperature;humidity
25420;BME280;13354;48.174;11.566;2023-04-03T00:01:21;96236.13;;;4.31;81.29
25420;BME280;13354;48.174;11.566;2023-04-03T00:03:46;96242.56;;;4.36;81.34
25420;BME280;13354;48.174;11.566;2023-04-03T00:06:11;96237.75;;;4.32;81.09
25420;BME280;13354;48.174;11.566;2023-04-03T00:08:37;96239.69;;;4.40;81.05
25420;BME280;13354;48.174;11.566;2023-04-03T00:11:02;96241.31;;;4.41;80.90
25420;BME280;13354;48.174;11.566;2023-04-03T00:13:28;96238.84;;;4.39;81.20
25420;BME280;13354;48.174;11.566;2023-04-03T00:15:53;96240.94;;;4.26;81.34
25420;BME280;13354;48.174;11.566;2023-04-03T00:18:18;96237.75;;;4.22;80.82
25420;BME280;13354;48.174;11.566;2023-04-03T00:20:43;96242.84;;;4.33;80.69
25420;BME280;13354;48.174;11.566;2023-04-03T00:23:09;96235.28;;;4.21;80.54
25420;BME280;13354;48.174;11.566;2023-04-03T00:25:34;96241.63;;;4.18;81.07
25420;BME280;13354;48.174;11.566;2023-04-03T00:27:59;96243.84;;;4.13;81.87
25420;BME280;13354;48.174;11.566;2023-04-03T00:30:25;96236.09;;;4.21;82.03
25420;BME280;13354;48.174;11.566;2023-04-03T00:32:51;96238.72;;;4.21;82.34
25420;BME280;13354;48.174;11.566;2023-04-03T00:35:16;96238.31;;;4.16;82.68
25420;BME280;13354;48.174;11.566;2023-04-03T00:37:42;96243.13;;;4.11;82.67
25420;BME280;13354;48.174;11.566;2023-04-03T00:40:08;96239.28;;;4.05;83.24
25420;BME280;13354;48.174;11.566;2023-04-03T00:42:35;96240.09;;;4.25;82.63
25420;BME280;13354;48.174;11.566;2023-04-03T00:47:26;96243.41;;;4.18;81.60
25420;BME280;13354;48.174;11.566;2023-04-03T00:49:51;96243.00;;;4.22;81.21
25420;BME280;13354;48.174;11.566;2023-04-03T00:52:19;96240.25;;;4.24;81.05
25420;BME280;13354;48.174;11.566;2023-04-03T00:54:46;96241.22;;;4.13;81.05
25420;BME280;13354;48.174;11.566;2023-04-03T00:57:12;96236.78;;;4.04;81.63
25420;BME280;13354;48.174;11.566;2023-04-03T00:59:39;96233.78;;;3.99;82.25
25420;BME280;13354;48.174;11.566;2023-04-03T01:02:06;96234.88;;;4.06;82.28
25420;BME280;13354;48.174;11.566;2023-04-03T01:04:33;96235.00;;;4.04;82.12
25420;BME280;13354;48.174;11.566;2023-04-03T01:07:00;96235.69;;;3.97;82.70
25420;BME280;13354;48.174;11.566;2023-04-03T01:09:26;96236.38;;;3.99;82.99
25420;BME280;13354;48.174;11.566;2023-04-03T01:11:52;96232.66;;;3.92;82.83
25420;BME280;13354;48.174;11.566;2023-04-03T01:14:17;96239.00;;;3.89;83.03
25420;BME280;13354;48.174;11.566;2023-04-03T01:16:43;96239.56;;;4.02;83.29
25420;BME280;13354;48.174;11.566;2023-04-03T01:19:08;96240.78;;;4.08;82.72
25420;BME280;13354;48.174;11.566;2023-04-03T01:26:41;96241.50;;;4.10;82.21
25420;BME280;13354;48.174;11.566;2023-04-03T01:29:07;96241.06;;;4.05;82.53
25420;BME280;13354;48.174;11.566;2023-04-03T01:33:57;96243.69;;;3.95;82.47
25420;BME280;13354;48.174;11.566;2023-04-03T01:36:24;96251.84;;;4.02;82.67
25420;BME280;13354;48.174;11.566;2023-04-03T01:38:50;96246.84;;;4.08;82.31
25420;BME280;13354;48.174;11.566;2023-04-03T01:41:16;96250.88;;;4.03;82.41
25420;BME280;13354;48.174;11.566;2023-04-03T01:43:41;96242.88;;;3.95;82.37
25420;BME280;13354;48.174;11.566;2023-04-03T01:46:07;96250.03;;;4.02;82.61
25420;BME280;13354;48.174;11.566;2023-04-03T01:48:32;96244.81;;;4.02;82.51
25420;BME280;13354;48.174;11.566;2023-04-03T01:50:58;96250.59;;;3.96;82.55
25420;BME280;13354;48.174;11.566;2023-04-03T01:53:23;96248.25;;;4.03;82.43
25420;BME280;13354;48.174;11.566;2023-04-03T01:55:48;96245.22;;;3.98;81.72
25420;BME280;13354;48.174;11.566;2023-04-03T01:58:13;96242.59;;;3.88;81.34
25420;BME280;13354;48.174;11.566;2023-04-03T02:00:38;96243.28;;;4.00;80.94
25420;BME280;13354;48.174;11.566;2023-04-03T02:03:03;96238.03;;;4.09;80.67
25420;BME280;13354;48.174;11.566;2023-04-03T02:05:29;96238.03;;;3.90;80.48
25420;BME280;13354;48.174;11.566;2023-04-03T02:07:54;96239.53;;;3.93;80.92
25420;BME280;13354;48.174;11.566;2023-04-03T02:10:19;96243.53;;;3.97;80.93
25420;BME280;13354;48.174;11.566;2023-04-03T02:12:45;96247.41;;;3.93;80.85
25420;BME280;13354;48.174;11.566;2023-04-03T02:15:10;96241.19;;;3.94;79.83
25420;BME280;13354;48.174;11.566;2023-04-03T02:17:36;96242.16;;;3.93;80.04
25420;BME280;13354;48.174;11.566;2023-04-03T02:20:01;96235.81;;;3.85;80.35
25420;BME280;13354;48.174;11.566;2023-04-03T02:22:26;96242.69;;;3.86;80.50
25420;BME280;13354;48.174;11.566;2023-04-03T02:24:51;96241.88;;;3.86;81.23
25420;BME280;13354;48.174;11.566;2023-04-03T02:27:17;96235.81;;;3.85;81.53
25420;BME280;13354;48.174;11.566;2023-04-03T02:29:42;96235.69;;;3.87;81.35
25420;BME280;13354;48.174;11.566;2023-04-03T02:32:07;96232.78;;;3.90;80.46
25420;BME280;13354;48.174;11.566;2023-04-03T02:34:32;96238.69;;;3.82;80.50
25420;BME280;13354;48.174;11.566;2023-04-03T02:36:57;96229.47;;;3.78;80.76
25420;BME280;13354;48.174;11.566;2023-04-03T02:39:23;96234.03;;;3.86;81.29
25420;BME280;13354;48.174;11.566;2023-04-03T02:41:48;96237.47;;;3.86;81.34
25420;BME280;13354;48.174;11.566;2023-04-03T02:44:13;96234.19;;;3.94;81.01
25420;BME280;13354;48.174;11.566;2023-04-03T02:46:39;96238.03;;;4.00;80.58
25420;BME280;13354;48.174;11.566;2023-04-03T02:49:04;96237.91;;;3.92;80.39
25420;BME280;13354;48.174;11.566;2023-04-03T02:51:30;96233.34;;;3.94;80.12
25420;BME280;13354;48.174;11.566;2023-04-03T02:53:55;96230.16;;;3.90;80.27
25420;BME280;13354;48.174;11.566;2023-04-03T02:56:21;96237.19;;;3.90;80.68
25420;BME280;13354;48.174;11.566;2023-04-03T02:58:46;96232.66;;;3.92;80.60
25420;BME280;13354;48.174;11.566;2023-04-03T03:01:11;96239.97;;;3.88;80.58
25420;BME280;13354;48.174;11.566;2023-04-03T03:03:36;96241.06;;;3.85;80.19
25420;BME280;13354;48.174;11.566;2023-04-03T03:06:05;96236.81;;;3.94;79.81
25420;BME280;13354;48.174;11.566;2023-04-03T03:08:31;96238.44;;;4.05;79.42
25420;BME280;13354;48.174;11.566;2023-04-03T03:10:56;96234.31;;;4.02;78.40
25420;BME280;13354;48.174;11.566;2023-04-03T03:13:21;96241.34;;;4.02;77.79
25420;BME280;13354;48.174;11.566;2023-04-03T03:15:46;96242.72;;;4.06;77.66
25420;BME280;13354;48.174;11.566;2023-04-03T03:18:12;96240.53;;;4.11;77.55
25420;BME280;13354;48.174;11.566;2023-04-03T03:20:37;96237.34;;;4.07;77.37
25420;BME280;13354;48.174;11.566;2023-04-03T03:23:02;96243.56;;;4.06;77.59
25420;BME280;13354;48.174;11.566;2023-04-03T03:25:27;96235.44;;;4.09;77.18
25420;BME280;13354;48.174;11.566;2023-04-03T03:27:52;96238.75;;;4.02;76.77
25420;BME280;13354;48.174;11.566;2023-04-03T03:30:18;96243.13;;;4.11;76.65
25420;BME280;13354;48.174;11.566;2023-04-03T03:32:43;96245.63;;;4.03;76.76
25420;BME280;13354;48.174;11.566;2023-04-03T03:35:08;96243.00;;;4.03;76.40
25420;BME280;13354;48.174;11.566;2023-04-03T03:37:33;96244.38;;;4.07;76.81
25420;BME280;13354;48.174;11.566;2023-04-03T03:39:59;96238.44;;;4.15;76.56
25420;BME280;13354;48.174;11.566;2023-04-03T03:42:24;96239.69;;;4.10;75.84
25420;BME280;13354;48.174;11.566;2023-04-03T03:44:50;96241.59;;;4.08;76.29
25420;BME280;13354;48.174;11.566;2023-04-03T03:47:16;96244.53;;;4.05;76.35
25420;BME280;13354;48.174;11.566;2023-04-03T03:49:41;96247.41;;;4.12;76.38
25420;BME280;13354;48.174;11.566;2023-04-03T03:52:07;96241.75;;;4.07;74.45
25420;BME280;13354;48.174;11.566;2023-04-03T03:54:35;96240.13;;;4.06;74.04
25420;BME280;13354;48.174;11.566;2023-04-03T03:57:00;96252.66;;;4.12;73.53
25420;BME280;13354;48.174;11.566;2023-04-03T03:59:25;96238.72;;;3.92;73.39
25420;BME280;13354;48.174;11.566;2023-04-03T04:01:51;96239.41;;;3.84;73.97
25420;BME280;13354;48.174;11.566;2023-04-03T04:04:16;96240.94;;;3.87;73.99
25420;BME280;13354;48.174;11.566;2023-04-03T04:06:41;96234.59;;;3.80;74.97
25420;BME280;13354;48.174;11.566;2023-04-03T04:09:06;96243.69;;;3.85;74.80
25420;BME280;13354;48.174;11.566;2023-04-03T04:11:31;96235.41;;;3.90;75.16
25420;BME280;13354;48.174;11.566;2023-04-03T04:13:58;96235.16;;;3.83;76.01
25420;BME280;13354;48.174;11.566;2023-04-03T04:16:23;96231.28;;;3.87;75.20
25420;BME280;13354;48.174;11.566;2023-04-03T04:18:48;96238.56;;;3.94;74.79
25420;BME280;13354;48.174;11.566;2023-04-03T04:21:13;96238.16;;;3.79;74.32
25420;BME280;13354;48.174;11.566;2023-04-03T04:23:39;96237.06;;;3.81;74.98
25420;BME280;13354;48.174;11.566;2023-04-03T04:26:04;96239.81;;;3.80;74.69
25420;BME280;13354;48.174;11.566;2023-04-03T04:28:29;96245.63;;;3.83;75.53
25420;BME280;13354;48.174;11.566;2023-04-03T04:30:55;96242.84;;;3.85;76.18
25420;BME280;13354;48.174;11.566;2023-04-03T04:33:20;96242.03;;;3.84;76.37
25420;BME280;13354;48.174;11.566;2023-04-03T04:35:46;96251.69;;;3.84;76.34
25420;BME280;13354;48.174;11.566;2023-04-03T04:38:12;96249.59;;;3.78;76.58
25420;BME280;13354;48.174;11.566;2023-04-03T04:40:37;96248.09;;;3.95;76.20
25420;BME280;13354;48.174;11.566;2023-04-03T04:43:02;96247.41;;;3.93;76.29
25420;BME280;13354;48.174;11.566;2023-04-03T04:45:28;96251.97;;;3.91;76.05
25420;BME280;13354;48.174;11.566;2023-04-03T04:47:54;96250.84;;;3.93;76.16
25420;BME280;13354;48.174;11.566;2023-04-03T04:50:20;96254.44;;;3.92;75.97
25420;BME280;13354;48.174;11.566;2023-04-03T04:52:45;96252.09;;;3.89;76.12
25420;BME280;13354;48.174;11.566;2023-04-03T04:55:10;96253.31;;;3.85;76.13
25420;BME280;13354;48.174;11.566;2023-04-03T04:57:35;96255.94;;;3.85;76.32
25420;BME280;13354;48.174;11.566;2023-04-03T05:00:02;96255.41;;;3.91;76.70
25420;BME280;13354;48.174;11.566;2023-04-03T05:02:27;96251.66;;;3.94;76.56
25420;BME280;13354;48.174;11.566;2023-04-03T05:04:53;96258.03;;;4.01;76.28
25420;BME280;13354;48.174;11.566;2023-04-03T05:07:18;96259.69;;;4.11;75.61
25420;BME280;13354;48.174;11.566;2023-04-03T05:09:43;96259.84;;;4.10;75.07
25420;BME280;13354;48.174;11.566;2023-04-03T05:12:08;96271.13;;;4.10;74.85
25420;BME280;13354;48.174;11.566;2023-04-03T05:14:33;96269.22;;;4.13;75.61
25420;BME280;13354;48.174;11.566;2023-04-03T05:16:59;96260.09;;;4.07;75.77
25420;BME280;13354;48.174;11.566;2023-04-03T05:19:24;96260.66;;;4.10;75.66
25420;BME280;13354;48.174;11.566;2023-04-03T05:21:49;96266.44;;;4.14;76.05
25420;BME280;13354;48.174;11.566;2023-04-03T05:24:14;96264.53;;;4.16;77.16
25420;BME280;13354;48.174;11.566;2023-04-03T05:26:40;96267.00;;;4.18;76.54
25420;BME280;13354;48.174;11.566;2023-04-03T05:29:06;96275.84;;;4.17;75.99
25420;BME280;13354;48.174;11.566;2023-04-03T05:31:31;96268.38;;;4.31;75.59
25420;BME280;13354;48.174;11.566;2023-04-03T05:33:56;96269.22;;;4.32;75.40
25420;BME280;13354;48.174;11.566;2023-04-03T05:36:21;96271.28;;;4.28;75.08
25420;BME280;13354;48.174;11.566;2023-04-03T05:38:47;96266.88;;;4.29;74.33
25420;BME280;13354;48.174;11.566;2023-04-03T05:41:13;96272.38;;;4.26;74.58
25420;BME280;13354;48.174;11.566;2023-04-03T05:43:38;96268.53;;;4.20;74.46
25420;BME280;13354;48.174;11.566;2023-04-03T05:46:04;96272.25;;;4.27;75.00
25420;BME280;13354;48.174;11.566;2023-04-03T05:48:29;96277.88;;;4.23;74.85
25420;BME280;13354;48.174;11.566;2023-04-03T05:50:54;96281.78;;;4.28;74.16
25420;BME280;13354;48.174;11.566;2023-04-03T05:53:24;96277.34;;;4.29;74.62
25420;BME280;13354;48.174;11.566;2023-04-03T05:55:51;96282.59;;;4.39;74.32
25420;BME280;13354;48.174;11.566;2023-04-03T05:58:17;96279.69;;;4.32;74.17
25420;BME280;13354;48.174;11.566;2023-04-03T06:00:42;96278.44;;;4.26;73.78
25420;BME280;13354;48.174;11.566;2023-04-03T06:03:07;96279.53;;;4.33;73.60
25420;BME280;13354;48.174;11.566;2023-04-03T06:05:32;96287.41;;;4.43;73.48
25420;BME280;13354;48.174;11.566;2023-04-03T06:07:57;96284.09;;;4.51;72.91
25420;BME280;13354;48.174;11.566;2023-04-03T06:10:23;96285.59;;;4.63;71.67
25420;BME280;13354;48.174;11.566;2023-04-03T06:12:48;96282.84;;;4.45;72.00
25420;BME280;13354;48.174;11.566;2023-04-03T06:15:13;96286.88;;;4.40;72.98
25420;BME280;13354;48.174;11.566;2023-04-03T06:17:39;96287.00;;;4.38;73.42
25420;BME280;13354;48.174;11.566;2023-04-03T06:20:05;96289.06;;;4.54;73.12
25420;BME280;13354;48.174;11.566;2023-04-03T06:22:30;96287.28;;;4.54;71.09
25420;BME280;13354;48.174;11.566;2023-04-03T06:24:56;96289.63;;;4.57;70.71
25420;BME280;13354;48.174;11.566;2023-04-03T06:27:21;96291.69;;;4.54;70.12
25420;BME280;13354;48.174;11.566;2023-04-03T06:29:46;96292.25;;;4.57;70.75
25420;BME280;13354;48.174;11.566;2023-04-03T06:32:11;96287.00;;;4.38;70.66
25420;BME280;13354;48.174;11.566;2023-04-03T06:34:37;96287.28;;;4.35;71.50
25420;BME280;13354;48.174;11.566;2023-04-03T06:37:02;96293.34;;;4.45;72.16
25420;BME280;13354;48.174;11.566;2023-04-03T06:39:28;96292.41;;;4.46;71.80
25420;BME280;13354;48.174;11.566;2023-04-03T06:41:53;96295.53;;;4.59;71.45
25420;BME280;13354;48.174;11.566;2023-04-03T06:44:18;96294.31;;;4.54;72.25
25420;BME280;13354;48.174;11.566;2023-04-03T06:46:44;96291.28;;;4.58;72.16
25420;BME280;13354;48.174;11.566;2023-04-03T06:49:10;96296.66;;;4.57;70.56
25420;BME280;13354;48.174;11.566;2023-04-03T06:51:35;96299.97;;;4.69;70.57
25420;BME280;13354;48.174;11.566;2023-04-03T06:54:01;96301.22;;;4.55;69.50
25420;BME280;13354;48.174;11.566;2023-04-03T06:56:26;96297.88;;;4.63;69.77
25420;BME280;13354;48.174;11.566;2023-04-03T06:58:52;96296.66;;;4.57;68.59
25420;BME280;13354;48.174;11.566;2023-04-03T07:01:19;96306.19;;;4.58;68.17
25420;BME280;13354;48.174;11.566;2023-04-03T07:03:45;96302.47;;;4.60;68.49
25420;BME280;13354;48.174;11.566;2023-04-03T07:06:12;96300.22;;;4.56;68.21
25420;BME280;13354;48.174;11.566;2023-04-03T07:08:37;96308.66;;;4.40;68.22
25420;BME280;13354;48.174;11.566;2023-04-03T07:11:03;96314.72;;;4.60;68.03
25420;BME280;13354;48.174;11.566;2023-04-03T07:13:28;96314.72;;;4.60;68.31
25420;BME280;13354;48.174;11.566;2023-04-03T07:15:54;96306.84;;;4.60;68.62
25420;BME280;13354;48.174;11.566;2023-04-03T07:18:19;96315.81;;;4.67;69.28
25420;BME280;13354;48.174;11.566;2023-04-03T07:20:44;96316.63;;;4.77;69.59
25420;BME280;13354;48.174;11.566;2023-04-03T07:23:10;96324.13;;;4.72;67.19
25420;BME280;13354;48.174;11.566;2023-04-03T07:25:35;96317.03;;;4.92;67.41
25420;BME280;13354;48.174;11.566;2023-04-03T07:28:01;96320.09;;;4.78;66.63
25420;BME280;13354;48.174;11.566;2023-04-03T07:30:26;96324.94;;;4.73;66.24
25420;BME280;13354;48.174;11.566;2023-04-03T07:32:52;96328.66;;;4.70;66.98
25420;BME280;13354;48.174;11.566;2023-04-03T07:35:17;96326.47;;;4.66;66.75
25420;BME280;13354;48.174;11.566;2023-04-03T07:37:42;96337.50;;;4.69;67.75
25420;BME280;13354;48.174;11.566;2023-04-03T07:40:07;96335.84;;;4.68;67.65
25420;BME280;13354;48.174;11.566;2023-04-03T07:42:33;96338.06;;;4.53;67.82
25420;BME280;13354;48.174;11.566;2023-04-03T07:44:58;96335.84;;;4.58;68.07
25420;BME280;13354;48.174;11.566;2023-04-03T07:47:24;96340.25;;;4.48;67.58
25420;BME280;13354;48.174;11.566;2023-04-03T07:49:49;96345.78;;;4.45;67.35
25420;BME280;13354;48.174;11.566;2023-04-03T07:52:14;96344.28;;;4.43;67.66
25420;BME280;13354;48.174;11.566;2023-04-03T07:54:40;96348.00;;;4.40;69.27
25420;BME280;13354;48.174;11.566;2023-04-03T07:57:05;96350.34;;;4.43;70.06
25420;BME280;13354;48.174;11.566;2023-04-03T07:59:31;96347.44;;;4.56;70.51
25420;BME280;13354;48.174;11.566;2023-04-03T08:01:56;96348.94;;;4.78;70.10
25420;BME280;13354;48.174;11.566;2023-04-03T08:04:22;96349.09;;;4.76;69.46
25420;BME280;13354;48.174;11.566;2023-04-03T08:06:47;96350.47;;;4.80;69.55
25420;BME280;13354;48.174;11.566;2023-04-03T08:09:13;96346.44;;;5.05;68.68
25420;BME280;13354;48.174;11.566;2023-04-03T08:11:39;96359.66;;;5.23;67.71
25420;BME280;13354;48.174;11.566;2023-04-03T08:14:04;96347.09;;;5.07;68.01
25420;BME280;13354;48.174;11.566;2023-04-03T08:16:29;96354.31;;;4.96;68.73
25420;BME280;13354;48.174;11.566;2023-04-03T08:18:55;96359.16;;;4.91;68.53
25420;BME280;13354;48.174;11.566;2023-04-03T08:21:20;96353.22;;;4.89;68.99
25420;BME280;13354;48.174;11.566;2023-04-03T08:23:47;96351.63;;;5.15;68.93
25420;BME280;13354;48.174;11.566;2023-04-03T08:26:17;96355.13;;;4.96;67.67
25420;BME280;13354;48.174;11.566;2023-04-03T08:28:42;96354.44;;;5.04;67.63
25420;BME280;13354;48.174;11.566;2023-04-03T08:31:09;96362.44;;;5.02;67.59
25420;BME280;13354;48.174;11.566;2023-04-03T08:33:35;96360.25;;;4.98;68.11
25420;BME280;13354;48.174;11.566;2023-04-03T08:36:02;96362.19;;;5.05;68.28
25420;BME280;13354;48.174;11.566;2023-04-03T08:38:27;96361.31;;;5.24;67.87
25420;BME280;13354;48.174;11.566;2023-04-03T08:41:00;96354.38;;;5.33;68.02
25420;BME280;13354;48.174;11.566;2023-04-03T08:43:33;96358.22;;;5.39;67.45
25420;BME280;13354;48.174;11.566;2023-04-03T08:45:59;96361.28;;;5.34;66.75
25420;BME280;13354;48.174;11.566;2023-04-03T08:48:36;96359.78;;;5.31;66.39
25420;BME280;13354;48.174;11.566;2023-04-03T08:51:04;96363.59;;;5.37;67.54
25420;BME280;13354;48.174;11.566;2023-04-03T08:53:37;96364.97;;;5.41;68.07
25420;BME280;13354;48.174;11.566;2023-04-03T08:56:06;96365.09;;;5.49;67.88
25420;BME280;13354;48.174;11.566;2023-04-03T08:58:38;96364.56;;;5.46;67.28
25420;BME280;13354;48.174;11.566;2023-04-03T09:01:12;96361.84;;;5.28;66.54
25420;BME280;13354;48.174;11.566;2023-04-03T09:03:41;96370.22;;;5.41;66.96
25420;BME280;13354;48.174;11.566;2023-04-03T09:06:07;96372.84;;;5.41;66.31
25420;BME280;13354;48.174;11.566;2023-04-03T09:08:37;96369.81;;;5.46;66.59
25420;BME280;13354;48.174;11.566;2023-04-03T09:11:24;96373.38;;;5.54;66.40
25420;BME280;13354;48.174;11.566;2023-04-03T09:16:47;96365.94;;;5.77;65.58
25420;BME280;13354;48.174;11.566;2023-04-03T09:19:14;96367.47;;;5.80;65.09
25420;BME280;13354;48.174;11.566;2023-04-03T09:21:40;96366.56;;;5.71;65.11
25420;BME280;13354;48.174;11.566;2023-04-03T09:24:07;96363.13;;;5.89;64.75
25420;BME280;13354;48.174;11.566;2023-04-03T09:26:36;96362.66;;;5.75;63.98
25420;BME280;13354;48.174;11.566;2023-04-03T09:29:05;96360.81;;;5.86;63.33
25420;BME280;13354;48.174;11.566;2023-04-03T09:31:36;96355.03;;;5.82;63.76
25420;BME280;13354;48.174;11.566;2023-04-03T09:34:02;96348.00;;;6.28;63.93
25420;BME280;13354;48.174;11.566;2023-04-03T09:36:37;96347.84;;;6.47;62.91
25420;BME280;13354;48.174;11.566;2023-04-03T09:39:03;96350.59;;;6.56;62.28
25420;BME280;13354;48.174;11.566;2023-04-03T09:41:28;96347.31;;;6.44;62.39
25420;BME280;13354;48.174;11.566;2023-04-03T09:43:54;96356.13;;;6.35;62.10
25420;BME280;13354;48.174;11.566;2023-04-03T09:46:30;96352.19;;;6.21;62.31
25420;BME280;13354;48.174;11.566;2023-04-03T09:49:00;96356.00;;;6.09;62.27
25420;BME280;13354;48.174;11.566;2023-04-03T09:51:27;96353.06;;;5.94;63.02
25420;BME280;13354;48.174;11.566;2023-04-03T09:53:53;96353.31;;;5.91;64.16
25420;BME280;13354;48.174;11.566;2023-04-03T09:56:20;96360.66;;;5.87;64.18
25420;BME280;13354;48.174;11.566;2023-04-03T09:59:29;96350.22;;;6.05;64.29
25420;BME280;13354;48.174;11.566;2023-04-03T10:01:39;96351.03;;;6.05;62.64
25420;BME280;13354;48.174;11.566;2023-04-03T10:06:33;96364.94;;;5.88;63.69
25420;BME280;13354;48.174;11.566;2023-04-03T10:09:05;96360.31;;;5.72;64.05
25420;BME280;13354;48.174;11.566;2023-04-03T10:11:30;96359.13;;;5.85;65.12
25420;BME280;13354;48.174;11.566;2023-04-03T10:13:57;96364.84;;;5.80;65.66
25420;BME280;13354;48.174;11.566;2023-04-03T10:16:25;96365.03;;;5.69;65.82
25420;BME280;13354;48.174;11.566;2023-04-03T10:21:29;96365.59;;;6.00;65.43
25420;BME280;13354;48.174;11.566;2023-04-03T10:24:03;96357.56;;;6.01;65.21
25420;BME280;13354;48.174;11.566;2023-04-03T10:31:41;96349.31;;;6.14;62.74
25420;BME280;13354;48.174;11.566;2023-04-03T10:34:17;96356.88;;;5.99;63.12
25420;BME280;13354;48.174;11.566;2023-04-03T10:36:52;96357.75;;;5.90;61.94
25420;BME280;13354;48.174;11.566;2023-04-03T10:46:52;96364.91;;;5.14;62.70
25420;BME280;13354;48.174;11.566;2023-04-03T10:52:05;96373.22;;;4.99;63.83
25420;BME280;13354;48.174;11.566;2023-04-03T10:54:38;96366.84;;;5.12;64.21
25420;BME280;13354;48.174;11.566;2023-04-03T10:57:05;96363.41;;;5.11;64.83
25420;BME280;13354;48.174;11.566;2023-04-03T11:04:41;96370.88;;;5.06;64.19
25420;BME280;13354;48.174;11.566;2023-04-03T11:07:14;96373.66;;;4.95;64.66
25420;BME280;13354;48.174;11.566;2023-04-03T11:09:41;96367.16;;;5.08;65.96
25420;BME280;13354;48.174;11.566;2023-04-03T11:12:12;96367.69;;;5.02;64.65
25420;BME280;13354;48.174;11.566;2023-04-03T11:14:38;96367.97;;;4.99;66.08
25420;BME280;13354;48.174;11.566;2023-04-03T11:22:22;96357.03;;;5.14;66.66
25420;BME280;13354;48.174;11.566;2023-04-03T11:24:51;96355.13;;;5.06;66.83
25420;BME280;13354;48.174;11.566;2023-04-03T11:27:20;96352.06;;;5.11;66.71
25420;BME280;13354;48.174;11.566;2023-04-03T11:29:48;96351.78;;;5.14;67.15
25420;BME280;13354;48.174;11.566;2023-04-03T11:34:42;96340.78;;;5.47;66.05
25420;BME280;13354;48.174;11.566;2023-04-03T11:40:00;96342.28;;;5.50;62.34
25420;BME280;13354;48.174;11.566;2023-04-03T11:42:39;96345.19;;;5.56;63.13
25420;BME280;13354;48.174;11.566;2023-04-03T11:47:55;96335.41;;;5.49;60.62
25420;BME280;13354;48.174;11.566;2023-04-03T12:05:54;96321.34;;;7.02;53.31
25420;BME280;13354;48.174;11.566;2023-04-03T12:08:24;96309.34;;;7.68;51.21
25420;BME280;13354;48.174;11.566;2023-04-03T12:13:34;96309.94;;;7.88;48.53
25420;BME280;13354;48.174;11.566;2023-04-03T12:15:59;96304.06;;;8.11;48.84
25420;BME280;13354;48.174;11.566;2023-04-03T12:18:59;96302.19;;;7.95;48.55
25420;BME280;13354;48.174;11.566;2023-04-03T12:28:57;96304.22;;;7.59;46.80
25420;BME280;13354;48.174;11.566;2023-04-03T12:31:23;96295.19;;;7.69;45.55
25420;BME280;13354;48.174;11.566;2023-04-03T12:36:42;96291.78;;;8.93;47.23
25420;BME280;13354;48.174;11.566;2023-04-03T12:39:13;96281.72;;;10.00;45.99
25420;BME280;13354;48.174;11.566;2023-04-03T12:41:51;96284.00;;;10.42;43.45
25420;BME280;13354;48.174;11.566;2023-04-03T12:44:35;96278.28;;;10.22;41.96
25420;BME280;13354;48.174;11.566;2023-04-03T12:47:08;96285.97;;;9.78;42.35
25420;BME280;13354;48.174;11.566;2023-04-03T12:49:40;96287.66;;;9.07;42.64
25420;BME280;13354;48.174;11.566;2023-04-03T12:54:50;96287.19;;;8.62;44.23
25420;BME280;13354;48.174;11.566;2023-04-03T12:57:20;96278.28;;;8.55;43.41
25420;BME280;13354;48.174;11.566;2023-04-03T12:59:46;96274.97;;;8.53;43.85
25420;BME280;13354;48.174;11.566;2023-04-03T13:02:28;96274.47;;;8.58;44.31
25420;BME280;13354;48.174;11.566;2023-04-03T13:04:55;96277.09;;;8.58;43.12
25420;BME280;13354;48.174;11.566;2023-04-03T13:07:24;96280.06;;;8.46;43.84
25420;BME280;13354;48.174;11.566;2023-04-03T13:09:59;96273.66;;;8.65;43.61
25420;BME280;13354;48.174;11.566;2023-04-03T13:12:24;96268.69;;;8.46;42.79
25420;BME280;13354;48.174;11.566;2023-04-03T13:14:54;96270.50;;;8.54;44.29
25420;BME280;13354;48.174;11.566;2023-04-03T13:17:19;96275.09;;;8.35;43.14
25420;BME280;13354;48.174;11.566;2023-04-03T13:19:46;96279.25;;;8.38;42.06
25420;BME280;13354;48.174;11.566;2023-04-03T13:22:28;96276.53;;;8.13;42.53
25420;BME280;13354;48.174;11.566;2023-04-03T13:24:58;96273.25;;;8.19;43.55
25420;BME280;13354;48.174;11.566;2023-04-03T13:27:24;96272.25;;;8.12;43.52
25420;BME280;13354;48.174;11.566;2023-04-03T13:29:51;96274.69;;;7.97;43.05
25420;BME280;13354;48.174;11.566;2023-04-03T13:32:19;96277.19;;;7.99;44.98
25420;BME280;13354;48.174;11.566;2023-04-03T13:34:45;96278.16;;;7.98;44.83
25420;BME280;13354;48.174;11.566;2023-04-03T13:37:20;96270.56;;;7.95;45.62
25420;BME280;13354;48.174;11.566;2023-04-03T13:39:55;96272.19;;;7.88;45.71
25420;BME280;13354;48.174;11.566;2023-04-03T13:42:22;96277.72;;;7.60;45.79
25420;BME280;13354;48.174;11.566;2023-04-03T13:44:48;96275.53;;;7.47;45.91
25420;BME280;13354;48.174;11.566;2023-04-03T13:47:16;96279.16;;;7.20;44.98
25420;BME280;13354;48.174;11.566;2023-04-03T13:49:43;96283.00;;;7.00;45.35
25420;BME280;13354;48.174;11.566;2023-04-03T13:52:27;96275.28;;;6.81;45.86
25420;BME280;13354;48.174;11.566;2023-04-03T13:54:58;96271.09;;;6.70;46.25
25420;BME280;13354;48.174;11.566;2023-04-03T13:57:23;96278.16;;;6.69;45.76
25420;BME280;13354;48.174;11.566;2023-04-03T13:59:48;96275.53;;;6.69;45.91
25420;BME280;13354;48.174;11.566;2023-04-03T14:02:16;96268.88;;;6.83;46.97
25420;BME280;13354;48.174;11.566;2023-04-03T14:04:47;96269.25;;;6.88;47.96
25420;BME280;13354;48.174;11.566;2023-04-03T14:07:14;96265.22;;;7.02;47.38
25420;BME280;13354;48.174;11.566;2023-04-03T14:09:39;96268.22;;;7.07;47.65
25420;BME280;13354;48.174;11.566;2023-04-03T14:12:06;96253.88;;;7.36;46.87
25420;BME280;13354;48.174;11.566;2023-04-03T14:14:33;96263.22;;;7.22;44.42
25420;BME280;13354;48.174;11.566;2023-04-03T14:16:59;96250.38;;;7.27;46.13
25420;BME280;13354;48.174;11.566;2023-04-03T14:19:26;96259.28;;;7.26;45.77
25420;BME280;13354;48.174;11.566;2023-04-03T14:21:52;96246.19;;;7.42;45.72